createdAt,value
2022-10-06T00:01:41.023Z,16.80
2022-10-06T00:06:42.728Z,16.75
2022-10-06T00:11:44.374Z,16.75
2022-10-06T00:16:46.014Z,16.78
2022-10-06T00:21:47.686Z,16.76
2022-10-06T00:26:49.375Z,16.75
2022-10-06T00:31:51.034Z,16.75
2022-10-06T00:36:52.657Z,16.77
2022-10-06T00:41:54.347Z,16.81
2022-10-06T00:46:56.340Z,16.92
2022-10-06T00:52:07.113Z,16.97
2022-10-06T00:57:08.771Z,17.02
2022-10-06T01:02:14.835Z,16.36
2022-10-06T01:07:17.406Z,15.08
2022-10-06T01:12:19.089Z,14.24
2022-10-06T01:17:29.550Z,13.77
2022-10-06T01:22:31.069Z,13.52
2022-10-06T01:27:32.970Z,13.43
2022-10-06T01:32:36.749Z,13.37
2022-10-06T01:37:39.517Z,13.33
2022-10-06T01:42:41.234Z,13.29
2022-10-06T01:47:43.247Z,13.30
2022-10-06T01:52:45.237Z,13.32
2022-10-06T01:57:46.914Z,13.35
2022-10-06T02:02:50.668Z,13.36
2022-10-06T02:07:52.321Z,13.36
2022-10-06T02:12:54.283Z,13.37
2022-10-06T02:17:57.395Z,13.39
2022-10-06T02:23:01.825Z,13.39
2022-10-06T02:28:03.564Z,13.43
2022-10-06T02:33:07.539Z,13.42
2022-10-06T02:38:09.432Z,13.46
2022-10-06T02:43:11.757Z,13.48
2022-10-06T02:48:13.574Z,13.49
2022-10-06T02:53:15.310Z,13.50
2022-10-06T02:58:17.032Z,13.51
2022-10-06T03:03:18.859Z,13.50
2022-10-06T03:08:20.577Z,13.49
2022-10-06T03:13:22.321Z,13.42
2022-10-06T03:18:24.884Z,13.36
2022-10-06T03:23:26.742Z,13.32
2022-10-06T03:28:28.988Z,13.28
2022-10-06T03:33:31.672Z,13.26
2022-10-06T03:38:34.135Z,13.23
2022-10-06T03:43:36.624Z,13.20
2022-10-06T03:48:38.432Z,13.17
2022-10-06T03:53:45.027Z,13.14
2022-10-06T03:58:49.986Z,13.10
2022-10-06T04:03:54.104Z,13.04
2022-10-06T04:08:55.943Z,13.00
2022-10-06T04:14:00.449Z,12.96
2022-10-06T04:19:07.482Z,12.89
2022-10-06T04:24:10.586Z,12.84
2022-10-06T04:29:14.823Z,12.82
2022-10-06T04:34:17.360Z,12.76
2022-10-06T04:39:20.490Z,12.74
2022-10-06T04:44:22.501Z,12.71
2022-10-06T04:49:24.862Z,12.70
2022-10-06T04:54:33.412Z,12.72
2022-10-06T04:59:54.629Z,12.78
2022-10-06T05:04:58.195Z,12.80
2022-10-06T05:10:00.386Z,12.85
2022-10-06T05:15:02.237Z,12.89
2022-10-06T05:20:04.449Z,12.94
2022-10-06T05:25:06.653Z,12.97
2022-10-06T05:30:09.855Z,12.96
2022-10-06T05:35:12.332Z,13.00
2022-10-06T05:40:14.189Z,12.95
2022-10-06T05:45:15.976Z,13.02
2022-10-06T05:50:19.522Z,13.03
2022-10-06T05:55:22.819Z,13.00
2022-10-06T06:00:24.640Z,13.11
2022-10-06T06:05:26.462Z,13.14
2022-10-06T06:10:28.265Z,13.16
2022-10-06T06:15:48.463Z,13.16
2022-10-06T06:21:00.981Z,13.13
2022-10-06T06:26:04.816Z,13.05
2022-10-06T06:31:20.148Z,13.04
2022-10-06T06:36:29.790Z,13.01
2022-10-06T06:41:32.860Z,12.99
2022-10-06T06:46:43.031Z,12.98
2022-10-06T06:51:49.884Z,12.96
2022-10-06T06:56:55.210Z,12.98
2022-10-06T07:01:57.639Z,13.03
2022-10-06T07:07:00.410Z,13.02
2022-10-06T07:12:11.378Z,13.06
2022-10-06T07:17:33.932Z,13.07
2022-10-06T07:22:54.366Z,13.14
2022-10-06T07:27:57.215Z,13.21
2022-10-06T07:33:05.069Z,13.25
2022-10-06T07:38:08.594Z,13.36
2022-10-06T07:43:22.977Z,13.43
2022-10-06T07:48:26.161Z,13.53
2022-10-06T07:53:37.540Z,13.61
2022-10-06T07:58:51.949Z,13.61
2022-10-06T08:03:53.636Z,13.67
2022-10-06T08:08:56.485Z,13.70
2022-10-06T08:13:58.349Z,13.67
2022-10-06T08:19:00.232Z,13.61
2022-10-06T08:24:02.080Z,13.68
2022-10-06T08:29:03.833Z,13.77
2022-10-06T08:34:11.836Z,13.76
2022-10-06T08:39:13.862Z,13.78
2022-10-06T08:44:19.146Z,13.92
2022-10-06T08:49:22.035Z,13.93
2022-10-06T08:54:29.850Z,14.02
2022-10-06T08:59:37.644Z,14.07
2022-10-06T09:04:39.281Z,14.18
2022-10-06T09:09:46.801Z,14.16
2022-10-06T09:15:04.530Z,14.11
2022-10-06T09:20:19.214Z,14.14
2022-10-06T09:25:22.135Z,14.18
2022-10-06T09:30:24.082Z,14.26
2022-10-06T09:35:27.456Z,14.37
2022-10-06T09:40:54.530Z,14.44
2022-10-06T09:45:57.312Z,14.54
2022-10-06T09:51:17.834Z,14.60
2022-10-06T09:56:19.760Z,14.83
2022-10-06T10:01:23.961Z,14.96
2022-10-06T10:06:35.078Z,14.88
2022-10-06T10:11:55.129Z,14.87
2022-10-06T10:16:56.802Z,14.78
2022-10-06T10:21:59.661Z,14.67
2022-10-06T10:27:26.303Z,14.70
2022-10-06T10:32:36.134Z,14.66
2022-10-06T10:37:42.943Z,14.73
2022-10-06T10:42:51.715Z,14.94
2022-10-06T10:47:53.498Z,15.13
2022-10-06T10:53:02.073Z,15.23
2022-10-06T10:58:33.782Z,15.13
2022-10-06T11:03:35.461Z,15.22
2022-10-06T11:08:43.116Z,15.15
2022-10-06T11:13:48.839Z,15.17
2022-10-06T11:19:09.257Z,15.24
2022-10-06T11:24:15.482Z,15.35
2022-10-06T11:29:54.425Z,15.50
2022-10-06T11:34:56.236Z,15.65
2022-10-06T11:40:02.336Z,15.90
2022-10-06T11:45:15.160Z,15.91
2022-10-06T11:50:37.623Z,15.77
2022-10-06T11:55:39.374Z,15.78
2022-10-06T12:00:43.053Z,15.77
2022-10-06T12:06:00.210Z,16.17
2022-10-06T12:11:01.842Z,16.49
2022-10-06T12:22:06.500Z,17.19
2022-10-06T12:27:44.788Z,17.30
2022-10-06T12:32:57.368Z,17.66
2022-10-06T12:38:04.631Z,17.95
2022-10-06T12:43:12.464Z,18.12
2022-10-06T12:48:26.841Z,17.76
2022-10-06T12:53:32.755Z,18.01
2022-10-06T12:58:34.412Z,18.83
2022-10-06T13:03:36.035Z,18.20
2022-10-06T13:08:38.358Z,18.14
2022-10-06T13:13:52.717Z,18.34
2022-10-06T13:18:55.565Z,18.24
2022-10-06T13:23:57.250Z,18.36
2022-10-06T13:28:59.312Z,18.29
2022-10-06T13:34:11.437Z,18.22
2022-10-06T13:39:17.770Z,18.84
2022-10-06T13:44:19.244Z,18.61
2022-10-06T13:49:40.801Z,18.39
2022-10-06T13:54:53.298Z,18.69
2022-10-06T14:00:14.255Z,18.56
2022-10-06T14:05:29.784Z,18.75
2022-10-06T14:10:40.370Z,19.06
2022-10-06T14:15:49.341Z,19.15
2022-10-06T14:20:53.347Z,19.03
2022-10-06T14:25:54.998Z,19.53
2022-10-06T14:30:57.414Z,18.93
2022-10-06T14:35:59.113Z,18.33
2022-10-06T14:41:01.986Z,17.97
2022-10-06T14:46:06.410Z,17.69
2022-10-06T14:51:09.167Z,17.54
2022-10-06T14:56:13.798Z,17.51
2022-10-06T15:01:17.204Z,17.37
2022-10-06T15:06:37.682Z,17.49
2022-10-06T15:11:39.614Z,17.60
2022-10-06T15:16:42.411Z,17.52
2022-10-06T15:21:47.028Z,17.63
2022-10-06T15:27:07.403Z,17.47
2022-10-06T15:32:09.485Z,17.37
2022-10-06T15:37:11.155Z,17.43
2022-10-06T15:42:15.361Z,17.48
2022-10-06T15:47:17.176Z,17.67
2022-10-06T15:52:18.892Z,17.52
2022-10-06T15:57:21.565Z,17.43
2022-10-06T16:02:23.409Z,17.30
2022-10-06T16:07:25.152Z,17.12
2022-10-06T16:12:28.529Z,17.00
2022-10-06T16:17:30.411Z,16.70
2022-10-06T16:22:32.093Z,16.43
2022-10-06T16:27:35.211Z,16.18
2022-10-06T16:32:37.116Z,15.97
2022-10-06T16:37:38.975Z,15.82
2022-10-06T16:42:43.288Z,15.63
2022-10-06T16:47:45.041Z,15.47
2022-10-06T16:52:46.711Z,15.29
2022-10-06T16:57:48.460Z,15.21
2022-10-06T17:02:50.193Z,15.05
2022-10-06T17:07:54.536Z,14.89
2022-10-06T17:13:00.312Z,14.76
2022-10-06T17:18:02.088Z,14.68
2022-10-06T17:23:03.751Z,14.54
2022-10-06T17:28:05.955Z,14.43
2022-10-06T17:33:07.647Z,14.31
2022-10-06T17:38:09.635Z,14.17
2022-10-06T17:43:11.349Z,14.05
2022-10-06T17:48:14.199Z,13.91
2022-10-06T17:53:15.839Z,13.75
2022-10-06T17:58:18.842Z,13.60
2022-10-06T18:03:26.332Z,13.44
2022-10-06T18:08:28.066Z,13.33
2022-10-06T18:13:31.446Z,13.23
2022-10-06T18:18:33.315Z,13.13
2022-10-06T18:23:36.210Z,13.05
2022-10-06T18:28:39.124Z,12.97
2022-10-06T18:36:10.405Z,12.90
2022-10-06T18:39:03.896Z,12.83
2022-10-06T18:44:05.594Z,12.73
2022-10-06T18:49:12.437Z,12.68
2022-10-06T18:54:16.375Z,12.61
2022-10-06T18:59:19.867Z,12.52
2022-10-06T19:04:22.257Z,12.46
2022-10-06T19:09:24.527Z,12.36
2022-10-06T19:14:36.766Z,12.26
2022-10-06T19:19:38.403Z,12.15
2022-10-06T19:24:41.547Z,12.03
2022-10-06T19:29:45.987Z,12.01
2022-10-06T19:34:48.360Z,11.99
2022-10-06T19:39:50.157Z,11.96
2022-10-06T19:44:52.044Z,11.93
2022-10-06T19:50:00.818Z,11.85
2022-10-06T19:55:04.942Z,11.69
2022-10-06T20:00:07.266Z,11.58
2022-10-06T20:05:15.486Z,11.50
2022-10-06T20:10:17.154Z,11.42
2022-10-06T20:15:19.711Z,11.32
2022-10-06T20:20:21.325Z,11.21
2022-10-06T20:25:22.962Z,11.12
2022-10-06T20:30:24.719Z,11.02
2022-10-06T20:35:26.346Z,10.93
2022-10-06T20:40:42.640Z,10.82
2022-10-06T20:45:44.302Z,10.75
2022-10-06T20:50:46.020Z,10.69
2022-10-06T20:55:51.739Z,10.60
2022-10-06T21:00:53.605Z,10.53
2022-10-06T21:05:55.492Z,10.45
2022-10-06T21:10:58.199Z,10.39
2022-10-06T21:16:00.250Z,10.32
2022-10-06T21:21:04.934Z,10.27
2022-10-06T21:26:07.432Z,10.23
2022-10-06T21:31:12.497Z,10.20
2022-10-06T21:36:23.675Z,10.16
2022-10-06T21:41:31.527Z,10.07
2022-10-06T21:46:37.197Z,10.03
2022-10-06T21:51:39.250Z,9.99
2022-10-06T21:56:41.122Z,9.93
2022-10-06T22:01:44.285Z,9.86
2022-10-06T22:06:49.963Z,9.83
2022-10-06T22:11:51.890Z,9.81
2022-10-06T22:16:53.746Z,9.73
2022-10-06T22:21:55.535Z,9.72
2022-10-06T22:26:58.956Z,9.70
2022-10-06T22:32:00.808Z,9.68
2022-10-06T22:37:02.745Z,9.62
2022-10-06T22:42:04.566Z,9.55
2022-10-06T22:47:06.404Z,9.50
2022-10-06T22:52:08.220Z,9.42
2022-10-06T22:57:10.203Z,9.32
2022-10-06T23:02:12.039Z,9.26
2022-10-06T23:07:13.804Z,9.25
2022-10-06T23:12:15.614Z,9.26
2022-10-06T23:17:17.411Z,9.16
2022-10-06T23:22:19.186Z,9.10
2022-10-06T23:27:21.083Z,8.97
2022-10-06T23:32:22.863Z,8.84
2022-10-06T23:37:24.710Z,8.81
2022-10-06T23:42:26.497Z,8.64
2022-10-06T23:47:28.279Z,8.60
2022-10-06T23:52:30.057Z,8.60
2022-10-06T23:57:31.909Z,8.58
